sensor_id;sensor_type;location;lat;lon;timestamp;P1;P2;P0
49343;PMS5003;35210;41.606;-87.602;2023-05-31T00:00:45;10.20;10.20;4.20
49343;PMS5003;35210;41.606;-87.602;2023-05-31T00:03:14;13.40;12.00;7.40
49343;PMS5003;35210;41.606;-87.602;2023-05-31T00:05:42;10.40;9.40;7.00
49343;PMS5003;35210;41.606;-87.602;2023-05-31T00:08:12;11.00;10.40;8.00
49343;PMS5003;35210;41.606;-87.602;2023-05-31T00:10:40;12.80;10.20;6.00
49343;PMS5003;35210;41.606;-87.602;2023-05-31T00:13:10;11.00;11.00;8.60
49343;PMS5003;35210;41.606;-87.602;2023-05-31T00:15:38;8.80;8.00;5.20
49343;PMS5003;35210;41.606;-87.602;2023-05-31T00:18:07;12.80;12.80;8.80
49343;PMS5003;35210;41.606;-87.602;2023-05-31T00:20:35;15.20;13.20;9.40
49343;PMS5003;35210;41.606;-87.602;2023-05-31T00:23:04;17.40;13.80;10.00
49343;PMS5003;35210;41.606;-87.602;2023-05-31T00:25:33;10.40;7.60;5.40
49343;PMS5003;35210;41.606;-87.602;2023-05-31T00:28:01;9.80;8.80;6.00
49343;PMS5003;35210;41.606;-87.602;2023-05-31T00:30:30;16.00;14.40;9.00
49343;PMS5003;35210;41.606;-87.602;2023-05-31T00:32:58;15.00;14.60;10.00
49343;PMS5003;35210;41.606;-87.602;2023-05-31T00:35:26;13.80;12.00;9.00
49343;PMS5003;35210;41.606;-87.602;2023-05-31T00:37:54;13.60;12.80;8.20
49343;PMS5003;35210;41.606;-87.602;2023-05-31T00:40:22;10.00;9.00;7.60
49343;PMS5003;35210;41.606;-87.602;2023-05-31T00:42:52;10.60;9.20;6.80
49343;PMS5003;35210;41.606;-87.602;2023-05-31T00:45:20;8.20;8.20;7.00
49343;PMS5003;35210;41.606;-87.602;2023-05-31T00:47:48;10.60;9.00;5.80
49343;PMS5003;35210;41.606;-87.602;2023-05-31T00:50:17;8.60;6.00;4.40
49343;PMS5003;35210;41.606;-87.602;2023-05-31T00:52:46;12.00;11.00;7.00
49343;PMS5003;35210;41.606;-87.602;2023-05-31T00:55:17;10.00;8.00;7.00
49343;PMS5003;35210;41.606;-87.602;2023-05-31T00:57:45;10.60;8.00;6.00
49343;PMS5003;35210;41.606;-87.602;2023-05-31T01:00:16;8.40;8.40;6.40
49343;PMS5003;35210;41.606;-87.602;2023-05-31T01:02:45;9.00;9.00;6.20
49343;PMS5003;35210;41.606;-87.602;2023-05-31T01:05:16;9.80;9.60;7.20
49343;PMS5003;35210;41.606;-87.602;2023-05-31T01:07:44;9.80;9.80;7.80
49343;PMS5003;35210;41.606;-87.602;2023-05-31T01:10:35;11.80;10.00;7.00
49343;PMS5003;35210;41.606;-87.602;2023-05-31T01:13:28;13.00;9.20;7.00
49343;PMS5003;35210;41.606;-87.602;2023-05-31T01:19:36;11.20;10.00;7.00
49343;PMS5003;35210;41.606;-87.602;2023-05-31T01:22:18;13.20;10.40;8.80
49343;PMS5003;35210;41.606;-87.602;2023-05-31T01:24:58;9.60;9.60;6.00
49343;PMS5003;35210;41.606;-87.602;2023-05-31T01:27:37;8.20;8.20;6.60
49343;PMS5003;35210;41.606;-87.602;2023-05-31T01:30:06;8.60;7.20;6.00
49343;PMS5003;35210;41.606;-87.602;2023-05-31T01:32:36;10.40;9.00;6.40
49343;PMS5003;35210;41.606;-87.602;2023-05-31T01:35:06;9.80;8.40;5.20
49343;PMS5003;35210;41.606;-87.602;2023-05-31T01:37:34;11.00;10.40;8.80
49343;PMS5003;35210;41.606;-87.602;2023-05-31T01:40:02;11.40;8.40;6.40
49343;PMS5003;35210;41.606;-87.602;2023-05-31T01:42:31;11.40;11.00;8.00
49343;PMS5003;35210;41.606;-87.602;2023-05-31T01:45:02;9.40;9.40;7.60
49343;PMS5003;35210;41.606;-87.602;2023-05-31T01:47:31;11.00;11.00;8.80
49343;PMS5003;35210;41.606;-87.602;2023-05-31T01:50:01;12.00;10.20;8.80
49343;PMS5003;35210;41.606;-87.602;2023-05-31T01:52:30;11.40;9.80;6.80
49343;PMS5003;35210;41.606;-87.602;2023-05-31T01:54:58;9.00;9.00;7.40
49343;PMS5003;35210;41.606;-87.602;2023-05-31T01:57:27;10.60;10.60;8.00
49343;PMS5003;35210;41.606;-87.602;2023-05-31T01:59:57;11.20;9.60;7.20
49343;PMS5003;35210;41.606;-87.602;2023-05-31T02:02:31;9.20;9.00;7.00
49343;PMS5003;35210;41.606;-87.602;2023-05-31T02:05:04;9.00;7.80;5.00
49343;PMS5003;35210;41.606;-87.602;2023-05-31T02:07:33;14.00;12.00;8.00
49343;PMS5003;35210;41.606;-87.602;2023-05-31T02:10:02;15.80;14.00;9.40
49343;PMS5003;35210;41.606;-87.602;2023-05-31T02:12:30;12.40;11.00;8.20
49343;PMS5003;35210;41.606;-87.602;2023-05-31T02:14:58;14.40;12.40;9.20
49343;PMS5003;35210;41.606;-87.602;2023-05-31T02:17:27;13.20;10.20;8.00
49343;PMS5003;35210;41.606;-87.602;2023-05-31T02:20:03;10.60;10.60;7.40
49343;PMS5003;35210;41.606;-87.602;2023-05-31T02:22:32;12.60;12.60;8.40
49343;PMS5003;35210;41.606;-87.602;2023-05-31T02:25:00;12.60;10.60;7.60
49343;PMS5003;35210;41.606;-87.602;2023-05-31T02:27:28;10.20;9.20;8.00
49343;PMS5003;35210;41.606;-87.602;2023-05-31T02:29:56;14.00;13.80;9.80
49343;PMS5003;35210;41.606;-87.602;2023-05-31T02:32:24;10.60;10.20;7.60
49343;PMS5003;35210;41.606;-87.602;2023-05-31T02:34:53;11.60;10.40;7.00
49343;PMS5003;35210;41.606;-87.602;2023-05-31T02:37:22;14.60;12.80;8.00
49343;PMS5003;35210;41.606;-87.602;2023-05-31T02:39:51;15.00;10.60;8.00
49343;PMS5003;35210;41.606;-87.602;2023-05-31T02:42:20;9.40;8.80;6.40
49343;PMS5003;35210;41.606;-87.602;2023-05-31T02:44:48;8.40;8.40;7.20
49343;PMS5003;35210;41.606;-87.602;2023-05-31T02:47:16;13.80;11.40;9.20
49343;PMS5003;35210;41.606;-87.602;2023-05-31T02:49:44;10.00;10.00;6.80
49343;PMS5003;35210;41.606;-87.602;2023-05-31T02:52:13;11.00;9.20;8.00
49343;PMS5003;35210;41.606;-87.602;2023-05-31T02:54:43;12.60;10.60;7.80
49343;PMS5003;35210;41.606;-87.602;2023-05-31T02:57:12;11.40;11.40;8.00
49343;PMS5003;35210;41.606;-87.602;2023-05-31T02:59:40;5.80;3.40;0.00
49343;PMS5003;35210;41.606;-87.602;2023-05-31T03:02:10;8.80;8.80;6.00
49343;PMS5003;35210;41.606;-87.602;2023-05-31T03:04:38;12.80;9.40;8.00
49343;PMS5003;35210;41.606;-87.602;2023-05-31T03:07:07;11.00;11.00;8.60
49343;PMS5003;35210;41.606;-87.602;2023-05-31T03:09:35;8.80;8.20;6.00
49343;PMS5003;35210;41.606;-87.602;2023-05-31T03:12:05;11.60;10.00;8.00
49343;PMS5003;35210;41.606;-87.602;2023-05-31T03:14:34;11.00;11.00;7.60
49343;PMS5003;35210;41.606;-87.602;2023-05-31T03:17:02;12.40;10.80;8.60
49343;PMS5003;35210;41.606;-87.602;2023-05-31T03:19:31;12.00;11.00;7.00
49343;PMS5003;35210;41.606;-87.602;2023-05-31T03:21:59;11.60;10.60;8.00
49343;PMS5003;35210;41.606;-87.602;2023-05-31T03:24:28;14.00;10.60;8.00
49343;PMS5003;35210;41.606;-87.602;2023-05-31T03:26:56;9.80;9.80;6.60
49343;PMS5003;35210;41.606;-87.602;2023-05-31T03:29:26;13.00;11.40;8.40
49343;PMS5003;35210;41.606;-87.602;2023-05-31T03:31:54;11.80;11.00;8.00
49343;PMS5003;35210;41.606;-87.602;2023-05-31T03:34:22;9.40;9.40;7.00
49343;PMS5003;35210;41.606;-87.602;2023-05-31T03:36:51;10.60;9.20;7.40
49343;PMS5003;35210;41.606;-87.602;2023-05-31T03:39:19;10.20;9.20;7.00
49343;PMS5003;35210;41.606;-87.602;2023-05-31T03:41:47;12.00;9.60;7.00
49343;PMS5003;35210;41.606;-87.602;2023-05-31T03:44:15;7.20;6.40;4.00
49343;PMS5003;35210;41.606;-87.602;2023-05-31T03:46:45;12.00;10.00;7.40
49343;PMS5003;35210;41.606;-87.602;2023-05-31T03:49:17;10.40;8.80;7.00
49343;PMS5003;35210;41.606;-87.602;2023-05-31T03:51:45;10.00;9.60;7.20
49343;PMS5003;35210;41.606;-87.602;2023-05-31T03:54:14;15.60;15.00;9.80
49343;PMS5003;35210;41.606;-87.602;2023-05-31T03:56:42;11.20;10.20;8.00
49343;PMS5003;35210;41.606;-87.602;2023-05-31T03:59:10;8.80;8.80;7.80
49343;PMS5003;35210;41.606;-87.602;2023-05-31T04:01:38;8.00;7.00;6.00
49343;PMS5003;35210;41.606;-87.602;2023-05-31T04:04:08;12.60;9.80;7.20
49343;PMS5003;35210;41.606;-87.602;2023-05-31T04:06:36;12.00;10.80;7.00
49343;PMS5003;35210;41.606;-87.602;2023-05-31T04:09:04;13.20;11.40;7.00
49343;PMS5003;35210;41.606;-87.602;2023-05-31T04:11:32;12.80;12.80;8.00
49343;PMS5003;35210;41.606;-87.602;2023-05-31T04:14:00;11.40;9.80;7.80
49343;PMS5003;35210;41.606;-87.602;2023-05-31T04:16:29;11.00;11.00;9.60
49343;PMS5003;35210;41.606;-87.602;2023-05-31T04:18:57;13.40;11.00;7.60
49343;PMS5003;35210;41.606;-87.602;2023-05-31T04:21:26;13.20;11.00;7.00
49343;PMS5003;35210;41.606;-87.602;2023-05-31T04:23:54;11.80;11.20;7.20
49343;PMS5003;35210;41.606;-87.602;2023-05-31T04:26:23;8.20;7.00;5.20
49343;PMS5003;35210;41.606;-87.602;2023-05-31T04:28:51;13.80;11.00;8.00
49343;PMS5003;35210;41.606;-87.602;2023-05-31T04:31:20;11.60;10.20;8.00
49343;PMS5003;35210;41.606;-87.602;2023-05-31T04:33:50;11.40;11.20;8.40
49343;PMS5003;35210;41.606;-87.602;2023-05-31T04:36:20;13.20;12.20;8.80
49343;PMS5003;35210;41.606;-87.602;2023-05-31T04:38:51;15.00;11.40;9.00
49343;PMS5003;35210;41.606;-87.602;2023-05-31T04:41:21;11.80;11.00;7.80
49343;PMS5003;35210;41.606;-87.602;2023-05-31T04:43:52;9.60;8.80;7.00
49343;PMS5003;35210;41.606;-87.602;2023-05-31T04:46:22;14.40;14.20;10.00
49343;PMS5003;35210;41.606;-87.602;2023-05-31T04:48:50;12.60;12.60;9.00
49343;PMS5003;35210;41.606;-87.602;2023-05-31T04:51:18;19.60;15.20;10.20
49343;PMS5003;35210;41.606;-87.602;2023-05-31T04:53:46;12.40;10.80;7.80
49343;PMS5003;35210;41.606;-87.602;2023-05-31T04:56:16;13.40;12.40;8.20
49343;PMS5003;35210;41.606;-87.602;2023-05-31T04:58:44;16.40;14.00;9.20
49343;PMS5003;35210;41.606;-87.602;2023-05-31T05:01:12;13.80;12.40;10.00
49343;PMS5003;35210;41.606;-87.602;2023-05-31T05:03:40;10.40;8.80;8.00
49343;PMS5003;35210;41.606;-87.602;2023-05-31T05:06:12;20.60;15.40;10.20
49343;PMS5003;35210;41.606;-87.602;2023-05-31T05:08:41;14.00;13.20;10.40
49343;PMS5003;35210;41.606;-87.602;2023-05-31T05:11:09;14.40;13.80;9.40
49343;PMS5003;35210;41.606;-87.602;2023-05-31T05:13:39;18.80;17.20;12.00
49343;PMS5003;35210;41.606;-87.602;2023-05-31T05:16:07;13.80;13.80;11.00
49343;PMS5003;35210;41.606;-87.602;2023-05-31T05:18:36;15.40;12.40;8.60
49343;PMS5003;35210;41.606;-87.602;2023-05-31T05:21:04;16.00;16.00;10.00
49343;PMS5003;35210;41.606;-87.602;2023-05-31T05:23:32;18.00;16.80;10.80
49343;PMS5003;35210;41.606;-87.602;2023-05-31T05:26:01;17.00;17.00;11.00
49343;PMS5003;35210;41.606;-87.602;2023-05-31T05:28:30;16.60;14.60;11.00
49343;PMS5003;35210;41.606;-87.602;2023-05-31T05:31:00;17.40;14.60;9.40
49343;PMS5003;35210;41.606;-87.602;2023-05-31T05:33:29;13.00;12.60;10.00
49343;PMS5003;35210;41.606;-87.602;2023-05-31T05:35:58;15.00;15.00;11.20
49343;PMS5003;35210;41.606;-87.602;2023-05-31T05:38:27;17.80;14.60;11.00
49343;PMS5003;35210;41.606;-87.602;2023-05-31T05:40:55;4.40;2.80;0.00
49343;PMS5003;35210;41.606;-87.602;2023-05-31T05:43:23;17.20;13.00;9.00
49343;PMS5003;35210;41.606;-87.602;2023-05-31T05:45:54;18.40;15.80;11.00
49343;PMS5003;35210;41.606;-87.602;2023-05-31T05:48:24;18.20;17.00;11.80
49343;PMS5003;35210;41.606;-87.602;2023-05-31T05:50:52;21.20;17.00;11.20
49343;PMS5003;35210;41.606;-87.602;2023-05-31T05:53:20;18.20;16.00;12.00
49343;PMS5003;35210;41.606;-87.602;2023-05-31T05:55:49;15.40;15.40;10.80
49343;PMS5003;35210;41.606;-87.602;2023-05-31T05:58:18;15.60;13.80;11.00
49343;PMS5003;35210;41.606;-87.602;2023-05-31T06:00:46;14.80;13.60;10.00
49343;PMS5003;35210;41.606;-87.602;2023-05-31T06:03:15;14.00;14.00;11.80
49343;PMS5003;35210;41.606;-87.602;2023-05-31T06:05:46;20.60;15.20;12.00
49343;PMS5003;35210;41.606;-87.602;2023-05-31T06:08:14;18.40;15.80;11.80
49343;PMS5003;35210;41.606;-87.602;2023-05-31T06:10:43;17.00;14.00;10.60
49343;PMS5003;35210;41.606;-87.602;2023-05-31T06:13:11;16.60;14.40;10.60
49343;PMS5003;35210;41.606;-87.602;2023-05-31T06:15:40;13.20;12.40;10.40
49343;PMS5003;35210;41.606;-87.602;2023-05-31T06:18:09;17.80;15.40;11.60
49343;PMS5003;35210;41.606;-87.602;2023-05-31T06:20:37;13.20;11.20;9.80
49343;PMS5003;35210;41.606;-87.602;2023-05-31T06:23:08;14.40;13.20;7.40
49343;PMS5003;35210;41.606;-87.602;2023-05-31T06:25:36;13.60;12.40;9.60
49343;PMS5003;35210;41.606;-87.602;2023-05-31T06:28:05;19.80;14.00;10.80
49343;PMS5003;35210;41.606;-87.602;2023-05-31T06:30:33;13.60;13.60;11.00
49343;PMS5003;35210;41.606;-87.602;2023-05-31T06:33:01;14.80;13.40;9.20
49343;PMS5003;35210;41.606;-87.602;2023-05-31T06:35:29;16.00;14.80;11.00
49343;PMS5003;35210;41.606;-87.602;2023-05-31T06:37:57;15.80;15.00;10.60
49343;PMS5003;35210;41.606;-87.602;2023-05-31T06:40:27;18.40;16.40;12.00
49343;PMS5003;35210;41.606;-87.602;2023-05-31T06:42:55;16.80;13.40;10.00
49343;PMS5003;35210;41.606;-87.602;2023-05-31T06:45:24;16.60;15.00;10.80
49343;PMS5003;35210;41.606;-87.602;2023-05-31T06:47:52;17.00;14.60;10.00
49343;PMS5003;35210;41.606;-87.602;2023-05-31T06:50:21;14.60;13.80;10.00
49343;PMS5003;35210;41.606;-87.602;2023-05-31T06:52:49;14.80;12.60;10.00
49343;PMS5003;35210;41.606;-87.602;2023-05-31T06:55:17;16.40;16.40;10.80
49343;PMS5003;35210;41.606;-87.602;2023-05-31T06:57:46;20.00;18.00;11.40
49343;PMS5003;35210;41.606;-87.602;2023-05-31T07:00:15;17.40;15.60;12.60
49343;PMS5003;35210;41.606;-87.602;2023-05-31T07:02:45;17.60;17.60;11.80
49343;PMS5003;35210;41.606;-87.602;2023-05-31T07:05:13;23.40;17.00;12.20
49343;PMS5003;35210;41.606;-87.602;2023-05-31T07:07:41;20.00;17.40;11.20
49343;PMS5003;35210;41.606;-87.602;2023-05-31T07:10:09;14.20;13.80;10.80
49343;PMS5003;35210;41.606;-87.602;2023-05-31T07:12:38;17.80;16.00;12.80
49343;PMS5003;35210;41.606;-87.602;2023-05-31T07:15:08;18.60;15.80;12.00
49343;PMS5003;35210;41.606;-87.602;2023-05-31T07:17:38;15.40;13.00;9.40
49343;PMS5003;35210;41.606;-87.602;2023-05-31T07:20:06;16.20;13.40;10.40
49343;PMS5003;35210;41.606;-87.602;2023-05-31T07:22:36;19.20;14.60;11.00
49343;PMS5003;35210;41.606;-87.602;2023-05-31T07:25:04;21.00;17.80;13.60
49343;PMS5003;35210;41.606;-87.602;2023-05-31T07:27:33;12.40;12.40;9.20
49343;PMS5003;35210;41.606;-87.602;2023-05-31T07:30:02;18.80;18.60;12.20
49343;PMS5003;35210;41.606;-87.602;2023-05-31T07:32:32;18.60;16.60;12.40
49343;PMS5003;35210;41.606;-87.602;2023-05-31T07:35:00;13.80;12.20;9.00
49343;PMS5003;35210;41.606;-87.602;2023-05-31T07:37:29;13.20;12.40;9.40
49343;PMS5003;35210;41.606;-87.602;2023-05-31T07:39:57;17.20;14.40;12.00
49343;PMS5003;35210;41.606;-87.602;2023-05-31T07:42:25;19.80;16.00;11.60
49343;PMS5003;35210;41.606;-87.602;2023-05-31T07:44:54;17.20;13.60;9.40
49343;PMS5003;35210;41.606;-87.602;2023-05-31T07:47:22;20.60;16.60;11.80
49343;PMS5003;35210;41.606;-87.602;2023-05-31T07:49:52;20.20;16.20;11.60
49343;PMS5003;35210;41.606;-87.602;2023-05-31T07:52:20;18.20;14.20;10.60
49343;PMS5003;35210;41.606;-87.602;2023-05-31T07:54:49;12.20;11.80;10.00
49343;PMS5003;35210;41.606;-87.602;2023-05-31T07:57:17;11.20;11.00;8.60
49343;PMS5003;35210;41.606;-87.602;2023-05-31T07:59:45;22.40;17.80;12.80
49343;PMS5003;35210;41.606;-87.602;2023-05-31T08:02:13;19.60;17.00;11.40
49343;PMS5003;35210;41.606;-87.602;2023-05-31T08:04:42;15.20;15.20;10.40
49343;PMS5003;35210;41.606;-87.602;2023-05-31T08:07:11;18.60;18.40;13.00
49343;PMS5003;35210;41.606;-87.602;2023-05-31T08:09:39;17.00;14.60;10.40
49343;PMS5003;35210;41.606;-87.602;2023-05-31T08:12:10;11.80;11.20;9.20
49343;PMS5003;35210;41.606;-87.602;2023-05-31T08:14:38;16.40;14.80;11.00
49343;PMS5003;35210;41.606;-87.602;2023-05-31T08:17:06;15.60;14.60;11.40
49343;PMS5003;35210;41.606;-87.602;2023-05-31T08:19:35;12.60;12.00;10.40
49343;PMS5003;35210;41.606;-87.602;2023-05-31T08:22:03;16.60;14.80;11.00
49343;PMS5003;35210;41.606;-87.602;2023-05-31T08:24:33;14.40;13.20;8.20
49343;PMS5003;35210;41.606;-87.602;2023-05-31T08:27:01;16.60;14.00;11.00
49343;PMS5003;35210;41.606;-87.602;2023-05-31T08:29:29;17.00;16.60;12.00
49343;PMS5003;35210;41.606;-87.602;2023-05-31T08:31:58;9.60;9.60;9.00
49343;PMS5003;35210;41.606;-87.602;2023-05-31T08:34:26;15.20;14.00;11.20
49343;PMS5003;35210;41.606;-87.602;2023-05-31T08:36:54;12.80;12.80;8.80
49343;PMS5003;35210;41.606;-87.602;2023-05-31T08:39:23;16.80;13.20;9.00
49343;PMS5003;35210;41.606;-87.602;2023-05-31T08:41:53;14.80;12.00;10.00
49343;PMS5003;35210;41.606;-87.602;2023-05-31T08:44:27;11.20;10.40;8.20
49343;PMS5003;35210;41.606;-87.602;2023-05-31T08:46:57;14.60;13.00;9.60
49343;PMS5003;35210;41.606;-87.602;2023-05-31T08:49:32;13.40;12.20;9.40
49343;PMS5003;35210;41.606;-87.602;2023-05-31T08:52:01;14.40;11.80;9.20
49343;PMS5003;35210;41.606;-87.602;2023-05-31T08:54:30;13.20;12.80;8.00
49343;PMS5003;35210;41.606;-87.602;2023-05-31T08:57:00;12.20;10.60;9.00
49343;PMS5003;35210;41.606;-87.602;2023-05-31T08:59:29;11.00;11.00;9.60
49343;PMS5003;35210;41.606;-87.602;2023-05-31T09:02:00;6.60;6.60;6.00
49343;PMS5003;35210;41.606;-87.602;2023-05-31T09:04:28;12.40;12.40;9.60
49343;PMS5003;35210;41.606;-87.602;2023-05-31T09:06:56;11.60;11.60;8.60
49343;PMS5003;35210;41.606;-87.602;2023-05-31T09:09:25;11.40;11.40;9.00
49343;PMS5003;35210;41.606;-87.602;2023-05-31T09:11:54;10.20;9.20;8.00
49343;PMS5003;35210;41.606;-87.602;2023-05-31T09:14:24;10.40;10.40;8.00
49343;PMS5003;35210;41.606;-87.602;2023-05-31T09:16:52;10.20;9.00;7.20
49343;PMS5003;35210;41.606;-87.602;2023-05-31T09:19:21;10.00;10.00;8.00
49343;PMS5003;35210;41.606;-87.602;2023-05-31T09:21:49;12.00;12.00;9.00
49343;PMS5003;35210;41.606;-87.602;2023-05-31T09:24:19;9.80;9.40;7.40
49343;PMS5003;35210;41.606;-87.602;2023-05-31T09:26:48;9.80;9.00;8.00
49343;PMS5003;35210;41.606;-87.602;2023-05-31T09:29:17;12.00;11.20;8.20
49343;PMS5003;35210;41.606;-87.602;2023-05-31T09:31:49;10.80;10.80;8.00
49343;PMS5003;35210;41.606;-87.602;2023-05-31T09:34:35;9.00;8.20;6.60
49343;PMS5003;35210;41.606;-87.602;2023-05-31T09:37:03;9.60;9.60;8.20
49343;PMS5003;35210;41.606;-87.602;2023-05-31T09:39:32;8.80;8.80;7.20
49343;PMS5003;35210;41.606;-87.602;2023-05-31T09:42:01;11.80;9.60;7.60
49343;PMS5003;35210;41.606;-87.602;2023-05-31T09:44:40;8.60;8.60;6.40
49343;PMS5003;35210;41.606;-87.602;2023-05-31T09:47:16;8.60;8.20;7.20
49343;PMS5003;35210;41.606;-87.602;2023-05-31T09:49:52;12.20;11.00;8.60
49343;PMS5003;35210;41.606;-87.602;2023-05-31T09:52:23;11.80;10.80;9.00
49343;PMS5003;35210;41.606;-87.602;2023-05-31T09:54:56;10.00;10.00;6.60
49343;PMS5003;35210;41.606;-87.602;2023-05-31T09:57:30;8.20;7.60;6.00
49343;PMS5003;35210;41.606;-87.602;2023-05-31T10:00:06;9.20;9.20;8.40
49343;PMS5003;35210;41.606;-87.602;2023-05-31T10:02:42;10.00;9.80;8.00
49343;PMS5003;35210;41.606;-87.602;2023-05-31T10:05:11;8.40;8.40;7.00
49343;PMS5003;35210;41.606;-87.602;2023-05-31T10:07:41;10.80;10.80;8.00
49343;PMS5003;35210;41.606;-87.602;2023-05-31T10:10:10;10.40;10.40;7.00
49343;PMS5003;35210;41.606;-87.602;2023-05-31T10:12:41;11.60;11.60;8.80
49343;PMS5003;35210;41.606;-87.602;2023-05-31T10:15:15;9.20;9.00;8.00
49343;PMS5003;35210;41.606;-87.602;2023-05-31T10:17:48;11.20;9.80;8.40
49343;PMS5003;35210;41.606;-87.602;2023-05-31T10:20:22;9.80;7.80;6.40
49343;PMS5003;35210;41.606;-87.602;2023-05-31T10:22:57;10.00;10.00;8.00
49343;PMS5003;35210;41.606;-87.602;2023-05-31T10:25:30;10.20;10.20;7.60
49343;PMS5003;35210;41.606;-87.602;2023-05-31T10:28:05;11.00;9.80;7.60
49343;PMS5003;35210;41.606;-87.602;2023-05-31T10:30:38;8.20;8.20;7.00
49343;PMS5003;35210;41.606;-87.602;2023-05-31T10:33:10;11.00;11.00;7.60
49343;PMS5003;35210;41.606;-87.602;2023-05-31T10:35:39;9.40;9.40;8.60
49343;PMS5003;35210;41.606;-87.602;2023-05-31T10:38:08;8.60;8.60;6.00
49343;PMS5003;35210;41.606;-87.602;2023-05-31T10:40:37;9.40;9.20;7.00
49343;PMS5003;35210;41.606;-87.602;2023-05-31T10:43:11;10.40;10.40;8.00
49343;PMS5003;35210;41.606;-87.602;2023-05-31T10:45:46;11.40;10.20;7.80
49343;PMS5003;35210;41.606;-87.602;2023-05-31T10:48:20;12.40;10.80;8.00
49343;PMS5003;35210;41.606;-87.602;2023-05-31T10:50:54;11.20;9.80;7.00
49343;PMS5003;35210;41.606;-87.602;2023-05-31T10:53:27;8.20;8.20;7.00
49343;PMS5003;35210;41.606;-87.602;2023-05-31T10:56:03;11.00;11.00;8.00
49343;PMS5003;35210;41.606;-87.602;2023-05-31T10:58:35;9.00;9.00;6.60
49343;PMS5003;35210;41.606;-87.602;2023-05-31T11:01:04;10.00;10.00;8.80
49343;PMS5003;35210;41.606;-87.602;2023-05-31T11:03:35;10.20;8.80;6.80
49343;PMS5003;35210;41.606;-87.602;2023-05-31T11:06:10;11.00;8.00;6.00
49343;PMS5003;35210;41.606;-87.602;2023-05-31T11:08:56;9.00;7.00;6.60
49343;PMS5003;35210;41.606;-87.602;2023-05-31T11:11:26;11.20;9.80;7.00
49343;PMS5003;35210;41.606;-87.602;2023-05-31T11:13:59;8.00;8.00;6.60
49343;PMS5003;35210;41.606;-87.602;2023-05-31T11:16:30;11.40;9.00;7.40
49343;PMS5003;35210;41.606;-87.602;2023-05-31T11:19:04;9.00;9.00;7.60
49343;PMS5003;35210;41.606;-87.602;2023-05-31T11:21:45;9.60;8.00;6.00
49343;PMS5003;35210;41.606;-87.602;2023-05-31T11:24:27;9.40;9.40;8.00
49343;PMS5003;35210;41.606;-87.602;2023-05-31T11:26:57;8.60;8.60;7.80
49343;PMS5003;35210;41.606;-87.602;2023-05-31T11:29:31;11.60;11.60;8.20
49343;PMS5003;35210;41.606;-87.602;2023-05-31T11:35:23;8.40;7.20;5.60
49343;PMS5003;35210;41.606;-87.602;2023-05-31T11:38:04;9.20;6.60;5.60
49343;PMS5003;35210;41.606;-87.602;2023-05-31T11:40:34;7.80;7.00;6.00
49343;PMS5003;35210;41.606;-87.602;2023-05-31T11:43:03;7.60;7.60;6.40
49343;PMS5003;35210;41.606;-87.602;2023-05-31T11:45:33;9.00;8.00;6.80
49343;PMS5003;35210;41.606;-87.602;2023-05-31T11:48:09;6.40;5.60;4.00
49343;PMS5003;35210;41.606;-87.602;2023-05-31T11:50:49;7.60;7.60;6.40
49343;PMS5003;35210;41.606;-87.602;2023-05-31T11:53:17;9.80;7.20;6.00
49343;PMS5003;35210;41.606;-87.602;2023-05-31T11:55:45;9.40;8.40;6.20
49343;PMS5003;35210;41.606;-87.602;2023-05-31T11:58:15;8.00;6.60;4.40
49343;PMS5003;35210;41.606;-87.602;2023-05-31T12:00:46;8.20;8.20;6.80
49343;PMS5003;35210;41.606;-87.602;2023-05-31T12:03:15;12.20;8.00;7.00
49343;PMS5003;35210;41.606;-87.602;2023-05-31T12:05:51;7.40;7.20;5.40
49343;PMS5003;35210;41.606;-87.602;2023-05-31T12:08:24;12.40;9.80;7.20
49343;PMS5003;35210;41.606;-87.602;2023-05-31T12:10:53;7.60;7.60;6.60
49343;PMS5003;35210;41.606;-87.602;2023-05-31T12:13:29;7.00;7.00;5.80
49343;PMS5003;35210;41.606;-87.602;2023-05-31T12:15:58;7.60;7.00;6.00
49343;PMS5003;35210;41.606;-87.602;2023-05-31T12:18:26;8.00;8.00;6.00
49343;PMS5003;35210;41.606;-87.602;2023-05-31T12:20:57;6.60;6.20;5.40
49343;PMS5003;35210;41.606;-87.602;2023-05-31T12:23:31;5.40;5.40;4.20
49343;PMS5003;35210;41.606;-87.602;2023-05-31T12:25:59;7.40;7.40;6.00
49343;PMS5003;35210;41.606;-87.602;2023-05-31T12:28:30;6.00;6.00;5.00
49343;PMS5003;35210;41.606;-87.602;2023-05-31T12:30:59;7.00;7.00;4.60
49343;PMS5003;35210;41.606;-87.602;2023-05-31T12:33:27;9.20;5.40;4.60
49343;PMS5003;35210;41.606;-87.602;2023-05-31T12:36:02;7.00;7.00;6.00
49343;PMS5003;35210;41.606;-87.602;2023-05-31T12:38:31;6.00;6.00;4.80
49343;PMS5003;35210;41.606;-87.602;2023-05-31T12:41:01;5.80;5.80;5.00
49343;PMS5003;35210;41.606;-87.602;2023-05-31T12:43:29;8.00;7.00;5.00
49343;PMS5003;35210;41.606;-87.602;2023-05-31T12:45:58;7.60;7.60;5.00
49343;PMS5003;35210;41.606;-87.602;2023-05-31T12:48:26;5.80;5.80;4.80
49343;PMS5003;35210;41.606;-87.602;2023-05-31T12:50:56;3.60;3.60;3.20
49343;PMS5003;35210;41.606;-87.602;2023-05-31T12:53:27;8.40;6.00;4.40
49343;PMS5003;35210;41.606;-87.602;2023-05-31T12:55:55;7.80;6.00;4.60
49343;PMS5003;35210;41.606;-87.602;2023-05-31T12:58:23;6.80;5.60;4.00
49343;PMS5003;35210;41.606;-87.602;2023-05-31T13:00:52;5.80;5.80;4.00
49343;PMS5003;35210;41.606;-87.602;2023-05-31T13:03:22;5.80;5.80;4.20
49343;PMS5003;35210;41.606;-87.602;2023-05-31T13:05:50;4.80;4.80;4.00
49343;PMS5003;35210;41.606;-87.602;2023-05-31T13:08:18;4.20;3.40;2.60
49343;PMS5003;35210;41.606;-87.602;2023-05-31T13:10:48;6.20;6.00;5.00
49343;PMS5003;35210;41.606;-87.602;2023-05-31T13:13:19;6.20;5.60;4.40
49343;PMS5003;35210;41.606;-87.602;2023-05-31T13:15:47;8.00;6.80;5.20
49343;PMS5003;35210;41.606;-87.602;2023-05-31T13:18:16;5.20;5.20;5.00
49343;PMS5003;35210;41.606;-87.602;2023-05-31T13:20:44;6.00;6.00;5.00
49343;PMS5003;35210;41.606;-87.602;2023-05-31T13:23:12;6.00;6.00;5.00
49343;PMS5003;35210;41.606;-87.602;2023-05-31T13:25:41;6.60;6.60;5.00
49343;PMS5003;35210;41.606;-87.602;2023-05-31T13:28:10;7.00;6.00;5.00
49343;PMS5003;35210;41.606;-87.602;2023-05-31T13:30:38;12.00;6.00;3.20
49343;PMS5003;35210;41.606;-87.602;2023-05-31T13:33:06;7.20;6.40;5.00
49343;PMS5003;35210;41.606;-87.602;2023-05-31T13:35:35;11.00;8.80;5.40
49343;PMS5003;35210;41.606;-87.602;2023-05-31T13:38:05;3.00;3.00;3.00
49343;PMS5003;35210;41.606;-87.602;2023-05-31T13:40:34;5.40;5.40;5.00
49343;PMS5003;35210;41.606;-87.602;2023-05-31T13:43:04;5.00;5.00;3.80
49343;PMS5003;35210;41.606;-87.602;2023-05-31T13:45:44;6.40;5.60;4.40
49343;PMS5003;35210;41.606;-87.602;2023-05-31T13:48:13;4.80;4.80;3.60
49343;PMS5003;35210;41.606;-87.602;2023-05-31T13:50:41;5.60;5.60;5.00
49343;PMS5003;35210;41.606;-87.602;2023-05-31T13:53:10;5.40;5.40;4.20
49343;PMS5003;35210;41.606;-87.602;2023-05-31T13:55:38;6.00;6.00;5.00
49343;PMS5003;35210;41.606;-87.602;2023-05-31T13:58:06;5.20;5.20;5.00
49343;PMS5003;35210;41.606;-87.602;2023-05-31T14:00:35;5.00;5.00;4.00
49343;PMS5003;35210;41.606;-87.602;2023-05-31T14:03:07;6.20;5.80;4.40